sensor_id;sensor_type;location;lat;lon;timestamp;P1;durP1;ratioP1;P2;durP2;ratioP2
66669;SDS011;53568;52.164;4.472;2022-07-25T00:02:21;6.18;;;6.18;;
66669;SDS011;53568;52.164;4.472;2022-07-25T00:04:47;6.14;;;6.14;;
66669;SDS011;53568;52.164;4.472;2022-07-25T00:07:12;5.60;;;5.60;;
66669;SDS011;53568;52.164;4.472;2022-07-25T00:09:38;5.90;;;5.90;;
66669;SDS011;53568;52.164;4.472;2022-07-25T00:12:04;5.60;;;5.60;;
66669;SDS011;53568;52.164;4.472;2022-07-25T00:14:30;6.32;;;6.32;;
66669;SDS011;53568;52.164;4.472;2022-07-25T00:16:55;5.79;;;5.79;;
66669;SDS011;53568;52.164;4.472;2022-07-25T00:19:21;6.03;;;6.03;;
66669;SDS011;53568;52.164;4.472;2022-07-25T00:21:46;5.85;;;5.85;;
66669;SDS011;53568;52.164;4.472;2022-07-25T00:24:12;5.82;;;5.82;;
66669;SDS011;53568;52.164;4.472;2022-07-25T00:26:37;5.38;;;5.38;;
66669;SDS011;53568;52.164;4.472;2022-07-25T00:29:03;5.56;;;5.56;;
66669;SDS011;53568;52.164;4.472;2022-07-25T00:31:28;5.58;;;5.58;;
66669;SDS011;53568;52.164;4.472;2022-07-25T00:33:54;5.49;;;5.49;;
66669;SDS011;53568;52.164;4.472;2022-07-25T00:36:19;5.56;;;5.56;;
66669;SDS011;53568;52.164;4.472;2022-07-25T00:38:45;5.41;;;5.41;;
66669;SDS011;53568;52.164;4.472;2022-07-25T00:41:10;5.74;;;5.74;;
66669;SDS011;53568;52.164;4.472;2022-07-25T00:43:36;5.65;;;5.65;;
66669;SDS011;53568;52.164;4.472;2022-07-25T00:46:02;6.34;;;6.34;;
66669;SDS011;53568;52.164;4.472;2022-07-25T00:48:27;5.95;;;5.95;;
66669;SDS011;53568;52.164;4.472;2022-07-25T00:50:56;5.82;;;5.82;;
66669;SDS011;53568;52.164;4.472;2022-07-25T00:53:23;6.31;;;6.31;;
66669;SDS011;53568;52.164;4.472;2022-07-25T00:55:49;6.46;;;6.46;;
66669;SDS011;53568;52.164;4.472;2022-07-25T00:58:16;6.72;;;6.72;;
66669;SDS011;53568;52.164;4.472;2022-07-25T01:00:43;6.86;;;6.86;;
66669;SDS011;53568;52.164;4.472;2022-07-25T01:03:09;7.06;;;7.06;;
66669;SDS011;53568;52.164;4.472;2022-07-25T01:05:35;6.90;;;6.90;;
66669;SDS011;53568;52.164;4.472;2022-07-25T01:08:00;6.63;;;6.63;;
66669;SDS011;53568;52.164;4.472;2022-07-25T01:10:28;6.55;;;6.55;;
66669;SDS011;53568;52.164;4.472;2022-07-25T01:12:56;6.43;;;6.43;;
66669;SDS011;53568;52.164;4.472;2022-07-25T01:15:22;5.92;;;5.92;;
66669;SDS011;53568;52.164;4.472;2022-07-25T01:17:48;6.67;;;6.67;;
66669;SDS011;53568;52.164;4.472;2022-07-25T01:20:15;6.65;;;6.65;;
66669;SDS011;53568;52.164;4.472;2022-07-25T01:22:41;6.87;;;6.87;;
66669;SDS011;53568;52.164;4.472;2022-07-25T01:25:07;6.69;;;6.69;;
66669;SDS011;53568;52.164;4.472;2022-07-25T01:27:32;6.72;;;6.72;;
66669;SDS011;53568;52.164;4.472;2022-07-25T01:29:58;6.83;;;6.83;;
66669;SDS011;53568;52.164;4.472;2022-07-25T01:32:23;6.58;;;6.58;;
66669;SDS011;53568;52.164;4.472;2022-07-25T01:34:49;6.54;;;6.54;;
66669;SDS011;53568;52.164;4.472;2022-07-25T01:37:14;7.16;;;7.16;;
66669;SDS011;53568;52.164;4.472;2022-07-25T01:39:40;6.57;;;6.57;;
66669;SDS011;53568;52.164;4.472;2022-07-25T01:42:05;6.60;;;6.60;;
66669;SDS011;53568;52.164;4.472;2022-07-25T01:44:31;6.53;;;6.53;;
66669;SDS011;53568;52.164;4.472;2022-07-25T01:46:56;6.81;;;6.81;;
66669;SDS011;53568;52.164;4.472;2022-07-25T01:49:22;6.43;;;6.43;;
66669;SDS011;53568;52.164;4.472;2022-07-25T01:51:50;6.86;;;6.86;;
66669;SDS011;53568;52.164;4.472;2022-07-25T01:54:16;6.61;;;6.61;;
66669;SDS011;53568;52.164;4.472;2022-07-25T01:56:42;6.53;;;6.53;;
66669;SDS011;53568;52.164;4.472;2022-07-25T01:59:08;6.94;;;6.94;;
66669;SDS011;53568;52.164;4.472;2022-07-25T02:01:35;6.61;;;6.61;;
66669;SDS011;53568;52.164;4.472;2022-07-25T02:04:01;7.01;;;7.01;;
66669;SDS011;53568;52.164;4.472;2022-07-25T02:06:27;6.81;;;6.81;;
66669;SDS011;53568;52.164;4.472;2022-07-25T02:08:53;7.00;;;6.99;;
66669;SDS011;53568;52.164;4.472;2022-07-25T02:11:19;6.94;;;6.94;;
66669;SDS011;53568;52.164;4.472;2022-07-25T02:13:44;6.93;;;6.93;;
66669;SDS011;53568;52.164;4.472;2022-07-25T02:16:11;6.91;;;6.91;;
66669;SDS011;53568;52.164;4.472;2022-07-25T02:18:37;7.43;;;7.43;;
66669;SDS011;53568;52.164;4.472;2022-07-25T02:21:03;7.42;;;7.42;;
66669;SDS011;53568;52.164;4.472;2022-07-25T02:23:31;7.27;;;7.27;;
66669;SDS011;53568;52.164;4.472;2022-07-25T02:25:57;7.33;;;7.33;;
66669;SDS011;53568;52.164;4.472;2022-07-25T02:28:23;6.88;;;6.88;;
66669;SDS011;53568;52.164;4.472;2022-07-25T02:30:48;7.01;;;7.01;;
66669;SDS011;53568;52.164;4.472;2022-07-25T02:33:14;6.90;;;6.90;;
66669;SDS011;53568;52.164;4.472;2022-07-25T02:35:39;7.41;;;7.41;;
66669;SDS011;53568;52.164;4.472;2022-07-25T02:38:05;7.02;;;7.02;;
66669;SDS011;53568;52.164;4.472;2022-07-25T02:40:31;7.03;;;7.03;;
66669;SDS011;53568;52.164;4.472;2022-07-25T02:42:57;7.81;;;7.81;;
66669;SDS011;53568;52.164;4.472;2022-07-25T02:45:22;7.71;;;7.71;;
66669;SDS011;53568;52.164;4.472;2022-07-25T02:47:48;7.94;;;7.94;;
66669;SDS011;53568;52.164;4.472;2022-07-25T02:50:13;8.25;;;8.25;;
66669;SDS011;53568;52.164;4.472;2022-07-25T02:52:39;7.40;;;7.40;;
66669;SDS011;53568;52.164;4.472;2022-07-25T02:55:05;7.52;;;7.52;;
66669;SDS011;53568;52.164;4.472;2022-07-25T02:57:31;7.56;;;7.56;;
66669;SDS011;53568;52.164;4.472;2022-07-25T02:59:56;7.25;;;7.25;;
66669;SDS011;53568;52.164;4.472;2022-07-25T03:02:22;6.94;;;6.94;;
66669;SDS011;53568;52.164;4.472;2022-07-25T03:04:47;7.67;;;7.67;;
66669;SDS011;53568;52.164;4.472;2022-07-25T03:07:13;7.67;;;7.67;;
66669;SDS011;53568;52.164;4.472;2022-07-25T03:09:38;7.41;;;7.41;;
66669;SDS011;53568;52.164;4.472;2022-07-25T03:12:04;7.52;;;7.52;;
66669;SDS011;53568;52.164;4.472;2022-07-25T03:14:30;7.40;;;7.40;;
66669;SDS011;53568;52.164;4.472;2022-07-25T03:16:55;7.25;;;7.25;;
66669;SDS011;53568;52.164;4.472;2022-07-25T03:19:21;7.29;;;7.29;;
66669;SDS011;53568;52.164;4.472;2022-07-25T03:21:46;7.59;;;7.59;;
66669;SDS011;53568;52.164;4.472;2022-07-25T03:24:12;8.19;;;8.19;;
66669;SDS011;53568;52.164;4.472;2022-07-25T03:26:38;7.55;;;7.55;;
66669;SDS011;53568;52.164;4.472;2022-07-25T03:29:03;7.27;;;7.27;;
66669;SDS011;53568;52.164;4.472;2022-07-25T03:31:29;7.76;;;7.76;;
66669;SDS011;53568;52.164;4.472;2022-07-25T03:33:54;8.04;;;8.04;;
66669;SDS011;53568;52.164;4.472;2022-07-25T03:36:20;8.04;;;8.04;;
66669;SDS011;53568;52.164;4.472;2022-07-25T03:38:46;8.14;;;8.14;;
66669;SDS011;53568;52.164;4.472;2022-07-25T03:41:11;8.04;;;8.04;;
66669;SDS011;53568;52.164;4.472;2022-07-25T03:43:37;7.74;;;7.74;;
66669;SDS011;53568;52.164;4.472;2022-07-25T03:46:03;7.67;;;7.67;;
66669;SDS011;53568;52.164;4.472;2022-07-25T03:48:28;7.77;;;7.77;;
66669;SDS011;53568;52.164;4.472;2022-07-25T03:50:55;7.62;;;7.62;;
66669;SDS011;53568;52.164;4.472;2022-07-25T03:53:21;7.26;;;7.26;;
66669;SDS011;53568;52.164;4.472;2022-07-25T03:55:47;7.40;;;7.40;;
66669;SDS011;53568;52.164;4.472;2022-07-25T03:58:12;7.11;;;7.11;;
66669;SDS011;53568;52.164;4.472;2022-07-25T04:00:38;7.33;;;7.33;;
66669;SDS011;53568;52.164;4.472;2022-07-25T04:03:03;7.18;;;7.18;;
66669;SDS011;53568;52.164;4.472;2022-07-25T04:05:29;7.18;;;7.18;;
66669;SDS011;53568;52.164;4.472;2022-07-25T04:07:54;6.90;;;6.90;;
66669;SDS011;53568;52.164;4.472;2022-07-25T04:10:20;6.61;;;6.61;;
66669;SDS011;53568;52.164;4.472;2022-07-25T04:12:46;5.89;;;5.89;;
66669;SDS011;53568;52.164;4.472;2022-07-25T04:15:12;5.61;;;5.61;;
66669;SDS011;53568;52.164;4.472;2022-07-25T04:17:37;5.56;;;5.56;;
66669;SDS011;53568;52.164;4.472;2022-07-25T04:20:03;5.34;;;5.34;;
66669;SDS011;53568;52.164;4.472;2022-07-25T04:22:30;5.17;;;5.17;;
66669;SDS011;53568;52.164;4.472;2022-07-25T04:24:56;4.84;;;4.84;;
66669;SDS011;53568;52.164;4.472;2022-07-25T04:27:21;5.10;;;5.10;;
66669;SDS011;53568;52.164;4.472;2022-07-25T04:29:47;4.88;;;4.88;;
66669;SDS011;53568;52.164;4.472;2022-07-25T04:32:12;4.72;;;4.72;;
66669;SDS011;53568;52.164;4.472;2022-07-25T04:34:38;4.74;;;4.74;;
66669;SDS011;53568;52.164;4.472;2022-07-25T04:37:04;4.56;;;4.56;;
66669;SDS011;53568;52.164;4.472;2022-07-25T04:39:29;4.60;;;4.60;;
66669;SDS011;53568;52.164;4.472;2022-07-25T04:41:56;4.19;;;4.19;;
66669;SDS011;53568;52.164;4.472;2022-07-25T04:44:21;4.66;;;4.66;;
66669;SDS011;53568;52.164;4.472;2022-07-25T04:46:47;4.41;;;4.41;;
66669;SDS011;53568;52.164;4.472;2022-07-25T04:49:13;4.32;;;4.32;;
66669;SDS011;53568;52.164;4.472;2022-07-25T04:51:38;4.09;;;4.09;;
66669;SDS011;53568;52.164;4.472;2022-07-25T04:54:04;3.97;;;3.97;;
66669;SDS011;53568;52.164;4.472;2022-07-25T04:56:29;3.95;;;3.95;;
66669;SDS011;53568;52.164;4.472;2022-07-25T04:58:55;3.60;;;3.60;;
66669;SDS011;53568;52.164;4.472;2022-07-25T05:01:21;3.15;;;3.15;;
66669;SDS011;53568;52.164;4.472;2022-07-25T05:03:46;3.01;;;3.01;;
66669;SDS011;53568;52.164;4.472;2022-07-25T05:06:12;2.97;;;2.97;;
66669;SDS011;53568;52.164;4.472;2022-07-25T05:08:37;2.78;;;2.78;;
66669;SDS011;53568;52.164;4.472;2022-07-25T05:11:03;2.72;;;2.72;;
66669;SDS011;53568;52.164;4.472;2022-07-25T05:13:28;2.53;;;2.53;;
66669;SDS011;53568;52.164;4.472;2022-07-25T05:15:54;2.56;;;2.56;;
66669;SDS011;53568;52.164;4.472;2022-07-25T05:18:19;2.35;;;2.35;;
66669;SDS011;53568;52.164;4.472;2022-07-25T05:20:46;2.61;;;2.61;;
66669;SDS011;53568;52.164;4.472;2022-07-25T05:23:11;2.36;;;2.36;;
66669;SDS011;53568;52.164;4.472;2022-07-25T05:25:37;2.57;;;2.57;;
66669;SDS011;53568;52.164;4.472;2022-07-25T05:28:03;2.29;;;2.29;;
66669;SDS011;53568;52.164;4.472;2022-07-25T05:30:28;2.51;;;2.51;;
66669;SDS011;53568;52.164;4.472;2022-07-25T05:32:54;2.54;;;2.54;;
66669;SDS011;53568;52.164;4.472;2022-07-25T05:35:19;2.25;;;2.25;;
66669;SDS011;53568;52.164;4.472;2022-07-25T05:37:45;2.73;;;2.73;;
66669;SDS011;53568;52.164;4.472;2022-07-25T05:40:10;2.58;;;2.58;;
66669;SDS011;53568;52.164;4.472;2022-07-25T05:42:37;2.46;;;2.46;;
66669;SDS011;53568;52.164;4.472;2022-07-25T05:45:02;2.61;;;2.61;;
66669;SDS011;53568;52.164;4.472;2022-07-25T05:47:28;2.46;;;2.46;;
66669;SDS011;53568;52.164;4.472;2022-07-25T05:49:54;2.40;;;2.40;;
66669;SDS011;53568;52.164;4.472;2022-07-25T05:52:19;2.35;;;2.35;;
66669;SDS011;53568;52.164;4.472;2022-07-25T05:54:45;2.41;;;2.41;;
66669;SDS011;53568;52.164;4.472;2022-07-25T05:57:10;2.63;;;2.63;;
66669;SDS011;53568;52.164;4.472;2022-07-25T05:59:36;2.86;;;2.76;;
66669;SDS011;53568;52.164;4.472;2022-07-25T06:02:01;2.76;;;2.62;;
66669;SDS011;53568;52.164;4.472;2022-07-25T06:04:28;2.87;;;2.73;;
66669;SDS011;53568;52.164;4.472;2022-07-25T06:06:53;2.45;;;2.45;;
66669;SDS011;53568;52.164;4.472;2022-07-25T06:09:19;2.30;;;2.30;;
66669;SDS011;53568;52.164;4.472;2022-07-25T06:11:46;2.47;;;2.46;;
66669;SDS011;53568;52.164;4.472;2022-07-25T06:14:12;2.64;;;2.54;;
66669;SDS011;53568;52.164;4.472;2022-07-25T06:16:38;2.29;;;2.25;;
66669;SDS011;53568;52.164;4.472;2022-07-25T06:19:04;2.15;;;2.15;;
66669;SDS011;53568;52.164;4.472;2022-07-25T06:21:30;2.28;;;2.28;;
66669;SDS011;53568;52.164;4.472;2022-07-25T06:23:55;2.33;;;2.27;;
66669;SDS011;53568;52.164;4.472;2022-07-25T06:26:21;2.55;;;2.39;;
66669;SDS011;53568;52.164;4.472;2022-07-25T06:28:49;2.36;;;2.24;;
66669;SDS011;53568;52.164;4.472;2022-07-25T06:31:15;2.44;;;2.27;;
66669;SDS011;53568;52.164;4.472;2022-07-25T06:33:41;2.68;;;2.46;;
66669;SDS011;53568;52.164;4.472;2022-07-25T06:36:06;2.45;;;2.28;;
66669;SDS011;53568;52.164;4.472;2022-07-25T06:38:32;2.50;;;2.37;;
66669;SDS011;53568;52.164;4.472;2022-07-25T06:40:58;2.50;;;2.34;;
66669;SDS011;53568;52.164;4.472;2022-07-25T06:43:23;2.75;;;2.57;;
66669;SDS011;53568;52.164;4.472;2022-07-25T06:45:49;2.27;;;2.18;;
66669;SDS011;53568;52.164;4.472;2022-07-25T06:48:14;2.32;;;2.17;;
66669;SDS011;53568;52.164;4.472;2022-07-25T06:50:41;2.40;;;2.30;;
66669;SDS011;53568;52.164;4.472;2022-07-25T06:53:06;2.36;;;2.32;;
66669;SDS011;53568;52.164;4.472;2022-07-25T06:55:32;2.72;;;2.53;;
66669;SDS011;53568;52.164;4.472;2022-07-25T06:57:58;2.30;;;2.30;;
66669;SDS011;53568;52.164;4.472;2022-07-25T07:00:23;2.86;;;2.65;;
66669;SDS011;53568;52.164;4.472;2022-07-25T07:02:50;3.11;;;2.80;;
66669;SDS011;53568;52.164;4.472;2022-07-25T07:05:17;3.19;;;2.84;;
66669;SDS011;53568;52.164;4.472;2022-07-25T07:07:43;3.20;;;2.85;;
66669;SDS011;53568;52.164;4.472;2022-07-25T07:10:09;3.60;;;3.21;;
66669;SDS011;53568;52.164;4.472;2022-07-25T07:12:34;3.11;;;2.78;;
66669;SDS011;53568;52.164;4.472;2022-07-25T07:15:00;3.02;;;2.70;;
66669;SDS011;53568;52.164;4.472;2022-07-25T07:17:25;2.93;;;2.67;;
66669;SDS011;53568;52.164;4.472;2022-07-25T07:19:51;2.94;;;2.69;;
66669;SDS011;53568;52.164;4.472;2022-07-25T07:22:16;2.74;;;2.53;;
66669;SDS011;53568;52.164;4.472;2022-07-25T07:24:42;3.03;;;2.81;;
66669;SDS011;53568;52.164;4.472;2022-07-25T07:27:07;2.59;;;2.34;;
66669;SDS011;53568;52.164;4.472;2022-07-25T07:29:33;2.77;;;2.57;;
66669;SDS011;53568;52.164;4.472;2022-07-25T07:31:58;2.90;;;2.66;;
66669;SDS011;53568;52.164;4.472;2022-07-25T07:34:25;2.87;;;2.62;;
66669;SDS011;53568;52.164;4.472;2022-07-25T07:36:51;2.96;;;2.70;;
66669;SDS011;53568;52.164;4.472;2022-07-25T07:39:16;2.65;;;2.43;;
66669;SDS011;53568;52.164;4.472;2022-07-25T07:41:42;2.91;;;2.69;;
66669;SDS011;53568;52.164;4.472;2022-07-25T07:44:07;2.69;;;2.57;;
66669;SDS011;53568;52.164;4.472;2022-07-25T07:46:33;2.33;;;2.30;;
66669;SDS011;53568;52.164;4.472;2022-07-25T07:48:58;3.25;;;3.04;;
66669;SDS011;53568;52.164;4.472;2022-07-25T07:51:24;2.54;;;2.54;;
66669;SDS011;53568;52.164;4.472;2022-07-25T07:53:50;2.86;;;2.86;;
66669;SDS011;53568;52.164;4.472;2022-07-25T07:56:34;2.75;;;2.74;;
66669;SDS011;53568;52.164;4.472;2022-07-25T07:58:59;2.62;;;2.54;;
66669;SDS011;53568;52.164;4.472;2022-07-25T08:01:25;2.93;;;2.78;;
66669;SDS011;53568;52.164;4.472;2022-07-25T08:03:51;2.94;;;2.74;;
66669;SDS011;53568;52.164;4.472;2022-07-25T08:06:16;2.96;;;2.78;;
66669;SDS011;53568;52.164;4.472;2022-07-25T08:08:42;2.83;;;2.62;;
66669;SDS011;53568;52.164;4.472;2022-07-25T08:11:08;2.66;;;2.52;;
66669;SDS011;53568;52.164;4.472;2022-07-25T08:13:33;2.36;;;2.36;;
66669;SDS011;53568;52.164;4.472;2022-07-25T08:16:00;2.61;;;2.61;;
66669;SDS011;53568;52.164;4.472;2022-07-25T08:18:30;2.40;;;2.40;;
66669;SDS011;53568;52.164;4.472;2022-07-25T08:20:57;2.51;;;2.51;;
66669;SDS011;53568;52.164;4.472;2022-07-25T08:23:24;2.28;;;2.28;;
66669;SDS011;53568;52.164;4.472;2022-07-25T08:25:51;2.46;;;2.40;;
66669;SDS011;53568;52.164;4.472;2022-07-25T08:28:18;2.93;;;2.76;;
66669;SDS011;53568;52.164;4.472;2022-07-25T08:30:44;3.07;;;2.89;;
66669;SDS011;53568;52.164;4.472;2022-07-25T08:33:11;4.00;;;3.81;;
66669;SDS011;53568;52.164;4.472;2022-07-25T08:35:44;2.82;;;2.69;;
66669;SDS011;53568;52.164;4.472;2022-07-25T08:38:11;3.16;;;2.90;;
66669;SDS011;53568;52.164;4.472;2022-07-25T08:40:36;3.48;;;3.12;;
66669;SDS011;53568;52.164;4.472;2022-07-25T08:43:02;3.29;;;3.07;;
66669;SDS011;53568;52.164;4.472;2022-07-25T08:45:29;3.34;;;3.03;;
66669;SDS011;53568;52.164;4.472;2022-07-25T08:47:54;3.48;;;3.19;;
66669;SDS011;53568;52.164;4.472;2022-07-25T08:50:22;3.48;;;3.19;;
66669;SDS011;53568;52.164;4.472;2022-07-25T08:52:52;3.37;;;3.08;;
66669;SDS011;53568;52.164;4.472;2022-07-25T08:55:19;3.26;;;3.05;;
66669;SDS011;53568;52.164;4.472;2022-07-25T08:57:50;3.10;;;2.91;;
66669;SDS011;53568;52.164;4.472;2022-07-25T09:00:18;3.22;;;3.01;;
66669;SDS011;53568;52.164;4.472;2022-07-25T09:02:59;3.49;;;3.22;;
66669;SDS011;53568;52.164;4.472;2022-07-25T09:05:27;3.69;;;3.33;;
66669;SDS011;53568;52.164;4.472;2022-07-25T09:07:55;3.76;;;3.36;;
66669;SDS011;53568;52.164;4.472;2022-07-25T09:10:26;3.68;;;3.31;;
66669;SDS011;53568;52.164;4.472;2022-07-25T09:12:56;3.64;;;3.31;;
66669;SDS011;53568;52.164;4.472;2022-07-25T09:15:28;3.94;;;3.63;;
66669;SDS011;53568;52.164;4.472;2022-07-25T09:17:55;3.71;;;3.39;;
66669;SDS011;53568;52.164;4.472;2022-07-25T09:20:22;3.96;;;3.62;;
66669;SDS011;53568;52.164;4.472;2022-07-25T09:22:49;4.09;;;3.65;;
66669;SDS011;53568;52.164;4.472;2022-07-25T09:25:22;4.04;;;3.66;;
66669;SDS011;53568;52.164;4.472;2022-07-25T09:27:49;3.98;;;3.63;;
66669;SDS011;53568;52.164;4.472;2022-07-25T09:30:16;4.21;;;3.86;;
66669;SDS011;53568;52.164;4.472;2022-07-25T09:32:42;4.33;;;3.91;;
66669;SDS011;53568;52.164;4.472;2022-07-25T09:35:08;4.26;;;3.97;;
66669;SDS011;53568;52.164;4.472;2022-07-25T09:37:34;4.65;;;4.38;;
66669;SDS011;53568;52.164;4.472;2022-07-25T09:39:59;6.64;;;6.54;;
66669;SDS011;53568;52.164;4.472;2022-07-25T09:42:26;5.45;;;5.45;;
66669;SDS011;53568;52.164;4.472;2022-07-25T09:45:06;4.40;;;4.39;;
66669;SDS011;53568;52.164;4.472;2022-07-25T09:47:57;4.17;;;4.06;;
66669;SDS011;53568;52.164;4.472;2022-07-25T09:50:25;3.87;;;3.79;;
66669;SDS011;53568;52.164;4.472;2022-07-25T09:52:54;3.95;;;3.86;;
66669;SDS011;53568;52.164;4.472;2022-07-25T09:55:21;4.18;;;4.07;;
66669;SDS011;53568;52.164;4.472;2022-07-25T09:57:48;4.20;;;3.97;;
66669;SDS011;53568;52.164;4.472;2022-07-25T10:00:20;4.59;;;4.51;;
66669;SDS011;53568;52.164;4.472;2022-07-25T10:02:55;4.26;;;4.22;;
66669;SDS011;53568;52.164;4.472;2022-07-25T10:08:44;4.66;;;4.38;;
66669;SDS011;53568;52.164;4.472;2022-07-25T10:11:22;4.74;;;4.64;;
66669;SDS011;53568;52.164;4.472;2022-07-25T10:13:50;5.46;;;5.21;;
66669;SDS011;53568;52.164;4.472;2022-07-25T10:16:19;5.19;;;5.05;;
66669;SDS011;53568;52.164;4.472;2022-07-25T10:18:52;4.47;;;4.35;;
66669;SDS011;53568;52.164;4.472;2022-07-25T10:21:20;5.06;;;4.80;;
66669;SDS011;53568;52.164;4.472;2022-07-25T10:24:06;4.32;;;4.13;;
66669;SDS011;53568;52.164;4.472;2022-07-25T10:26:35;4.93;;;4.80;;
66669;SDS011;53568;52.164;4.472;2022-07-25T10:29:07;5.79;;;5.72;;
66669;SDS011;53568;52.164;4.472;2022-07-25T10:31:35;5.46;;;5.28;;
66669;SDS011;53568;52.164;4.472;2022-07-25T10:34:06;5.16;;;4.94;;
66669;SDS011;53568;52.164;4.472;2022-07-25T10:39:12;5.55;;;5.29;;
66669;SDS011;53568;52.164;4.472;2022-07-25T10:41:40;4.96;;;4.87;;
66669;SDS011;53568;52.164;4.472;2022-07-25T10:44:11;5.89;;;5.68;;
66669;SDS011;53568;52.164;4.472;2022-07-25T10:46:39;5.25;;;5.06;;
66669;SDS011;53568;52.164;4.472;2022-07-25T10:49:14;5.12;;;4.88;;
66669;SDS011;53568;52.164;4.472;2022-07-25T10:51:50;5.50;;;5.30;;
66669;SDS011;53568;52.164;4.472;2022-07-25T10:54:21;4.65;;;4.51;;
66669;SDS011;53568;52.164;4.472;2022-07-25T10:56:57;4.56;;;4.33;;
66669;SDS011;53568;52.164;4.472;2022-07-25T10:59:36;4.53;;;4.28;;
66669;SDS011;53568;52.164;4.472;2022-07-25T11:02:04;5.03;;;4.74;;
66669;SDS011;53568;52.164;4.472;2022-07-25T11:04:32;5.22;;;4.94;;
66669;SDS011;53568;52.164;4.472;2022-07-25T11:07:15;5.37;;;4.91;;
66669;SDS011;53568;52.164;4.472;2022-07-25T11:09:44;5.71;;;5.32;;
66669;SDS011;53568;52.164;4.472;2022-07-25T11:12:24;5.20;;;4.97;;
66669;SDS011;53568;52.164;4.472;2022-07-25T11:14:50;5.36;;;5.07;;
66669;SDS011;53568;52.164;4.472;2022-07-25T11:17:22;5.11;;;4.84;;
66669;SDS011;53568;52.164;4.472;2022-07-25T11:19:59;5.78;;;5.52;;
66669;SDS011;53568;52.164;4.472;2022-07-25T11:22:33;5.64;;;5.28;;
66669;SDS011;53568;52.164;4.472;2022-07-25T11:24:59;5.99;;;5.58;;
66669;SDS011;53568;52.164;4.472;2022-07-25T11:27:27;5.23;;;4.76;;
66669;SDS011;53568;52.164;4.472;2022-07-25T11:30:11;5.28;;;4.81;;
66669;SDS011;53568;52.164;4.472;2022-07-25T11:32:49;5.28;;;4.80;;
66669;SDS011;53568;52.164;4.472;2022-07-25T11:35:24;4.57;;;4.16;;
66669;SDS011;53568;52.164;4.472;2022-07-25T11:37:51;4.81;;;4.30;;
66669;SDS011;53568;52.164;4.472;2022-07-25T11:40:19;4.53;;;4.03;;
66669;SDS011;53568;52.164;4.472;2022-07-25T11:42:52;3.82;;;3.40;;
66669;SDS011;53568;52.164;4.472;2022-07-25T11:45:20;4.10;;;3.57;;
66669;SDS011;53568;52.164;4.472;2022-07-25T11:48:07;4.18;;;3.72;;
66669;SDS011;53568;52.164;4.472;2022-07-25T11:50:35;3.92;;;3.52;;
66669;SDS011;53568;52.164;4.472;2022-07-25T11:53:04;4.47;;;3.99;;
66669;SDS011;53568;52.164;4.472;2022-07-25T11:55:35;4.59;;;3.99;;
66669;SDS011;53568;52.164;4.472;2022-07-25T11:58:06;5.47;;;4.81;;
66669;SDS011;53568;52.164;4.472;2022-07-25T12:00:47;4.77;;;4.25;;
66669;SDS011;53568;52.164;4.472;2022-07-25T12:03:17;4.51;;;4.13;;
66669;SDS011;53568;52.164;4.472;2022-07-25T12:05:44;4.74;;;4.25;;
66669;SDS011;53568;52.164;4.472;2022-07-25T12:10:44;5.18;;;4.48;;
66669;SDS011;53568;52.164;4.472;2022-07-25T12:13:26;5.20;;;4.46;;
66669;SDS011;53568;52.164;4.472;2022-07-25T12:15:54;4.62;;;3.98;;
66669;SDS011;53568;52.164;4.472;2022-07-25T12:18:21;4.78;;;4.08;;
66669;SDS011;53568;52.164;4.472;2022-07-25T12:20:47;5.65;;;4.87;;
66669;SDS011;53568;52.164;4.472;2022-07-25T12:23:13;6.38;;;5.67;;
66669;SDS011;53568;52.164;4.472;2022-07-25T12:25:42;5.95;;;5.22;;
66669;SDS011;53568;52.164;4.472;2022-07-25T12:28:09;5.17;;;4.62;;
66669;SDS011;53568;52.164;4.472;2022-07-25T12:30:36;6.17;;;5.53;;
66669;SDS011;53568;52.164;4.472;2022-07-25T12:33:04;5.58;;;5.01;;
66669;SDS011;53568;52.164;4.472;2022-07-25T12:35:30;5.75;;;5.18;;
66669;SDS011;53568;52.164;4.472;2022-07-25T12:37:56;5.18;;;4.56;;
66669;SDS011;53568;52.164;4.472;2022-07-25T12:40:22;5.86;;;4.95;;
66669;SDS011;53568;52.164;4.472;2022-07-25T12:42:48;5.16;;;4.41;;
66669;SDS011;53568;52.164;4.472;2022-07-25T12:45:15;5.73;;;5.09;;
66669;SDS011;53568;52.164;4.472;2022-07-25T12:47:45;6.14;;;5.64;;
66669;SDS011;53568;52.164;4.472;2022-07-25T12:50:12;4.96;;;4.48;;
66669;SDS011;53568;52.164;4.472;2022-07-25T12:52:39;3.81;;;3.41;;
66669;SDS011;53568;52.164;4.472;2022-07-25T12:55:06;4.62;;;4.23;;
66669;SDS011;53568;52.164;4.472;2022-07-25T12:57:34;4.36;;;3.92;;
66669;SDS011;53568;52.164;4.472;2022-07-25T13:00:01;4.29;;;3.77;;
66669;SDS011;53568;52.164;4.472;2022-07-25T13:02:29;4.61;;;4.06;;
66669;SDS011;53568;52.164;4.472;2022-07-25T13:04:54;5.36;;;4.65;;
66669;SDS011;53568;52.164;4.472;2022-07-25T13:07:20;5.31;;;4.76;;
66669;SDS011;53568;52.164;4.472;2022-07-25T13:09:47;5.19;;;4.83;;
66669;SDS011;53568;52.164;4.472;2022-07-25T13:12:12;5.96;;;5.53;;
66669;SDS011;53568;52.164;4.472;2022-07-25T13:14:38;4.25;;;3.88;;
66669;SDS011;53568;52.164;4.472;2022-07-25T13:17:03;4.81;;;4.15;;
66669;SDS011;53568;52.164;4.472;2022-07-25T13:19:29;5.09;;;4.32;;
66669;SDS011;53568;52.164;4.472;2022-07-25T13:21:54;4.51;;;3.84;;
66669;SDS011;53568;52.164;4.472;2022-07-25T13:24:20;5.49;;;4.64;;
66669;SDS011;53568;52.164;4.472;2022-07-25T13:26:45;5.25;;;4.46;;
66669;SDS011;53568;52.164;4.472;2022-07-25T13:29:11;5.17;;;4.45;;
66669;SDS011;53568;52.164;4.472;2022-07-25T13:31:37;5.74;;;5.11;;
66669;SDS011;53568;52.164;4.472;2022-07-25T13:34:03;4.91;;;4.47;;
66669;SDS011;53568;52.164;4.472;2022-07-25T13:36:31;4.29;;;3.79;;
66669;SDS011;53568;52.164;4.472;2022-07-25T13:38:57;5.96;;;5.29;;
66669;SDS011;53568;52.164;4.472;2022-07-25T13:41:23;4.76;;;4.36;;
66669;SDS011;53568;52.164;4.472;2022-07-25T13:43:49;4.16;;;3.89;;
66669;SDS011;53568;52.164;4.472;2022-07-25T13:46:15;5.23;;;4.97;;
66669;SDS011;53568;52.164;4.472;2022-07-25T13:48:40;3.70;;;3.54;;
66669;SDS011;53568;52.164;4.472;2022-07-25T13:51:06;3.84;;;3.66;;
66669;SDS011;53568;52.164;4.472;2022-07-25T13:53:31;3.93;;;3.68;;
66669;SDS011;53568;52.164;4.472;2022-07-25T13:55:57;3.68;;;3.34;;
66669;SDS011;53568;52.164;4.472;2022-07-25T13:58:24;4.68;;;4.13;;
66669;SDS011;53568;52.164;4.472;2022-07-25T14:00:50;4.03;;;3.39;;
66669;SDS011;53568;52.164;4.472;2022-07-25T14:03:16;3.93;;;3.38;;
66669;SDS011;53568;52.164;4.472;2022-07-25T14:05:41;5.44;;;4.85;;
66669;SDS011;53568;52.164;4.472;2022-07-25T14:08:07;5.02;;;4.70;;
66669;SDS011;53568;52.164;4.472;2022-07-25T14:10:33;3.79;;;3.46;;
66669;SDS011;53568;52.164;4.472;2022-07-25T14:12:59;4.64;;;4.10;;
66669;SDS011;53568;52.164;4.472;2022-07-25T14:15:28;3.93;;;3.41;;
66669;SDS011;53568;52.164;4.472;2022-07-25T14:17:54;4.70;;;4.15;;
66669;SDS011;53568;52.164;4.472;2022-07-25T14:20:19;4.96;;;4.35;;
66669;SDS011;53568;52.164;4.472;2022-07-25T14:22:46;4.59;;;4.08;;
66669;SDS011;53568;52.164;4.472;2022-07-25T14:25:11;4.13;;;3.69;;
66669;SDS011;53568;52.164;4.472;2022-07-25T14:27:37;4.23;;;3.80;;
66669;SDS011;53568;52.164;4.472;2022-07-25T14:30:06;5.31;;;4.69;;
66669;SDS011;53568;52.164;4.472;2022-07-25T14:32:36;5.64;;;5.03;;
66669;SDS011;53568;52.164;4.472;2022-07-25T14:35:03;5.32;;;4.60;;
66669;SDS011;53568;52.164;4.472;2022-07-25T14:37:30;5.48;;;4.53;;
66669;SDS011;53568;52.164;4.472;2022-07-25T14:39:57;7.21;;;6.02;;
66669;SDS011;53568;52.164;4.472;2022-07-25T14:42:23;5.66;;;4.92;;
66669;SDS011;53568;52.164;4.472;2022-07-25T14:44:49;5.83;;;4.75;;
66669;SDS011;53568;52.164;4.472;2022-07-25T14:47:15;5.15;;;3.95;;
66669;SDS011;53568;52.164;4.472;2022-07-25T14:49:41;5.38;;;3.91;;
66669;SDS011;53568;52.164;4.472;2022-07-25T14:52:08;6.54;;;4.71;;
66669;SDS011;53568;52.164;4.472;2022-07-25T14:54:36;7.17;;;5.14;;
66669;SDS011;53568;52.164;4.472;2022-07-25T14:57:02;8.23;;;5.87;;